createdAt,value
2023-04-12T00:00:05.768Z,147.53
2023-04-12T00:01:05.745Z,145.02
2023-04-12T00:02:05.806Z,149.06
2023-04-12T00:03:05.779Z,146.13
2023-04-12T00:04:05.940Z,146.46
2023-04-12T00:05:05.825Z,147.66
2023-04-12T00:06:05.830Z,143.96
2023-04-12T00:07:05.777Z,144.88
2023-04-12T00:08:05.796Z,145.20
2023-04-12T00:09:05.797Z,147.21
2023-04-12T00:10:05.826Z,144.40
2023-04-12T00:11:05.836Z,144.88
2023-04-12T00:12:05.819Z,145.98
2023-04-12T00:13:05.809Z,146.65
2023-04-12T00:14:05.801Z,145.53
2023-04-12T00:15:07.956Z,143.40
2023-04-12T00:16:05.896Z,147.50
2023-04-12T00:17:05.867Z,145.79
2023-04-12T00:18:05.927Z,144.31
2023-04-12T00:19:05.852Z,142.35
2023-04-12T00:20:05.849Z,143.18
2023-04-12T00:21:05.865Z,146.51
2023-04-12T00:22:05.843Z,145.21
2023-04-12T00:23:05.855Z,145.03
2023-04-12T00:24:05.862Z,144.91
2023-04-12T00:25:05.846Z,143.08
2023-04-12T00:26:05.879Z,144.47
2023-04-12T00:27:05.888Z,143.73
2023-04-12T00:28:05.859Z,143.94
2023-04-12T00:29:05.884Z,144.06
2023-04-12T00:30:05.869Z,143.42
2023-04-12T00:31:05.921Z,145.26
2023-04-12T00:32:05.992Z,143.89
2023-04-12T00:33:05.939Z,142.95
2023-04-12T00:34:05.880Z,143.57
2023-04-12T00:35:05.882Z,142.16
2023-04-12T00:36:05.931Z,142.84
2023-04-12T00:37:05.901Z,141.54
2023-04-12T00:38:05.886Z,142.94
2023-04-12T00:39:05.892Z,144.38
2023-04-12T00:40:05.939Z,142.06
2023-04-12T00:41:05.920Z,141.92
2023-04-12T00:42:05.963Z,143.29
2023-04-12T00:43:05.966Z,141.73
2023-04-12T00:44:05.949Z,139.24
2023-04-12T00:45:05.969Z,141.32
2023-04-12T00:46:05.970Z,143.56
2023-04-12T00:47:06.013Z,141.09
2023-04-12T00:48:06.048Z,143.31
2023-04-12T00:49:06.009Z,144.20
2023-04-12T00:50:06.017Z,141.16
2023-04-12T00:51:06.029Z,139.08
2023-04-12T00:52:06.036Z,140.75
2023-04-12T00:53:05.996Z,139.56
2023-04-12T00:54:06.042Z,139.49
2023-04-12T00:55:06.026Z,140.39
2023-04-12T00:56:06.055Z,140.75
2023-04-12T00:57:06.048Z,138.61
2023-04-12T00:58:06.061Z,139.49
2023-04-12T00:59:06.070Z,139.79
2023-04-12T01:00:06.076Z,139.34
2023-04-12T01:01:06.090Z,141.20
2023-04-12T01:02:06.141Z,141.70
2023-04-12T01:03:06.179Z,141.30
2023-04-12T01:04:06.083Z,138.64
2023-04-12T01:05:06.043Z,140.38
2023-04-12T01:06:06.065Z,140.10
2023-04-12T01:07:06.074Z,138.79
2023-04-12T01:08:06.121Z,138.72
2023-04-12T01:09:06.067Z,138.65
2023-04-12T01:10:06.069Z,138.46
2023-04-12T01:11:06.100Z,138.75
2023-04-12T01:12:06.099Z,138.16
2023-04-12T01:13:06.095Z,139.14
2023-04-12T01:14:06.096Z,137.60
2023-04-12T01:15:06.095Z,139.73
2023-04-12T01:16:06.113Z,139.48
2023-04-12T01:17:06.091Z,137.53
2023-04-12T01:18:06.190Z,140.21
2023-04-12T01:19:06.146Z,137.42
2023-04-12T01:20:06.378Z,137.88
2023-04-12T01:21:06.110Z,140.63
2023-04-12T01:22:06.118Z,136.00
2023-04-12T01:23:06.119Z,135.81
2023-04-12T01:24:06.140Z,136.06
2023-04-12T01:25:06.151Z,137.91
2023-04-12T01:26:06.178Z,137.39
2023-04-12T01:27:06.152Z,137.52
2023-04-12T01:28:06.111Z,137.96
2023-04-12T01:29:06.136Z,135.90
2023-04-12T01:30:06.135Z,137.19
2023-04-12T01:31:06.172Z,136.67
2023-04-12T01:32:06.372Z,135.49
2023-04-12T01:33:06.208Z,136.39
2023-04-12T01:34:06.187Z,135.79
2023-04-12T01:35:06.174Z,138.30
2023-04-12T01:36:07.495Z,135.78
2023-04-12T01:37:06.169Z,135.01
2023-04-12T01:38:06.165Z,136.85
2023-04-12T01:39:06.185Z,137.67
2023-04-12T01:40:06.192Z,135.19
2023-04-12T01:41:06.231Z,135.17
2023-04-12T01:42:06.243Z,135.39
2023-04-12T01:43:06.244Z,136.18
2023-04-12T01:44:06.233Z,137.36
2023-04-12T01:45:06.245Z,134.59
2023-04-12T01:46:06.325Z,137.99
2023-04-12T01:47:06.252Z,134.77
2023-04-12T01:48:06.372Z,137.53
2023-04-12T01:49:06.286Z,137.35
2023-04-12T01:50:06.279Z,133.12
2023-04-12T01:51:06.397Z,136.19
2023-04-12T01:52:06.286Z,134.12
2023-04-12T01:53:06.307Z,136.11
2023-04-12T01:54:06.339Z,134.11
2023-04-12T01:55:06.375Z,133.69
2023-04-12T01:56:06.338Z,133.53
2023-04-12T01:57:06.353Z,133.79
2023-04-12T01:58:06.386Z,134.08
2023-04-12T01:59:06.354Z,134.38
2023-04-12T02:00:06.399Z,132.67
2023-04-12T02:01:06.408Z,132.39
2023-04-12T02:02:06.432Z,133.12
2023-04-12T02:03:06.616Z,134.95
2023-04-12T02:04:06.584Z,133.57
2023-04-12T02:05:06.446Z,133.32
2023-04-12T02:06:06.430Z,135.17
2023-04-12T02:07:06.436Z,133.34
2023-04-12T02:08:06.428Z,134.73
2023-04-12T02:09:06.436Z,133.12
2023-04-12T02:10:06.424Z,134.25
2023-04-12T02:11:06.451Z,133.26
2023-04-12T02:12:06.432Z,133.83
2023-04-12T02:13:06.449Z,132.12
2023-04-12T02:14:06.457Z,132.64
2023-04-12T02:15:06.440Z,132.64
2023-04-12T02:16:06.473Z,133.46
2023-04-12T02:17:06.463Z,132.42
2023-04-12T02:18:06.504Z,133.29
2023-04-12T02:19:06.478Z,132.86
2023-04-12T02:20:06.487Z,132.49
2023-04-12T02:21:06.529Z,133.50
2023-04-12T02:22:06.529Z,132.11
2023-04-12T02:23:06.553Z,132.08
2023-04-12T02:24:06.530Z,135.22
2023-04-12T02:25:06.558Z,130.46
2023-04-12T02:26:06.539Z,133.18
2023-04-12T02:27:06.573Z,132.70
2023-04-12T02:28:06.588Z,131.35
2023-04-12T02:29:06.596Z,131.36
2023-04-12T02:30:06.586Z,132.10
2023-04-12T02:31:06.716Z,131.58
2023-04-12T02:32:06.609Z,132.76
2023-04-12T02:33:06.682Z,133.04
2023-04-12T02:34:06.636Z,131.94
2023-04-12T02:35:06.638Z,130.48
2023-04-12T02:36:06.661Z,130.50
2023-04-12T02:37:06.658Z,130.12
2023-04-12T02:38:06.692Z,128.62
2023-04-12T02:39:06.708Z,126.41
2023-04-12T02:40:06.751Z,129.83
2023-04-12T02:41:06.743Z,129.82
2023-04-12T02:42:06.710Z,129.18
2023-04-12T02:43:06.728Z,130.85
2023-04-12T02:44:06.738Z,130.35
2023-04-12T02:45:06.773Z,131.80
2023-04-12T02:46:06.813Z,127.15
2023-04-12T02:47:06.797Z,130.60
2023-04-12T02:48:06.864Z,129.34
2023-04-12T02:49:06.810Z,130.12
2023-04-12T02:50:06.836Z,129.29
2023-04-12T02:51:06.860Z,131.18
2023-04-12T02:52:06.883Z,128.78
2023-04-12T02:53:06.872Z,128.64
2023-04-12T02:54:06.904Z,128.05
2023-04-12T02:55:06.965Z,128.39
2023-04-12T02:56:06.921Z,128.52
2023-04-12T02:57:06.938Z,130.66
2023-04-12T02:58:06.989Z,128.87
2023-04-12T02:59:06.991Z,127.59
2023-04-12T03:00:06.990Z,129.54
2023-04-12T03:01:07.050Z,129.40
2023-04-12T03:02:07.091Z,126.95
2023-04-12T03:03:07.169Z,127.50
2023-04-12T03:04:07.140Z,127.43
2023-04-12T03:05:07.093Z,126.49
2023-04-12T03:06:07.101Z,125.85
2023-04-12T03:07:07.138Z,130.68
2023-04-12T03:08:07.146Z,125.95
2023-04-12T03:09:07.167Z,126.17
2023-04-12T03:10:07.220Z,127.11
2023-04-12T03:11:07.200Z,126.52
2023-04-12T03:12:07.185Z,128.96
2023-04-12T03:13:07.217Z,127.17
2023-04-12T03:14:07.237Z,126.59
2023-04-12T03:15:07.235Z,127.09
2023-04-12T03:16:07.343Z,126.60
2023-04-12T03:17:07.266Z,127.26
2023-04-12T03:18:07.319Z,129.10
2023-04-12T03:19:07.289Z,126.05
2023-04-12T03:20:07.309Z,126.74
2023-04-12T03:21:07.305Z,126.48
2023-04-12T03:22:07.303Z,128.14
2023-04-12T03:23:07.347Z,125.70
2023-04-12T03:24:07.317Z,128.07
2023-04-12T03:25:07.359Z,124.08
2023-04-12T03:26:07.394Z,125.67
2023-04-12T03:27:07.390Z,127.32
2023-04-12T03:28:07.411Z,124.59
2023-04-12T03:29:08.087Z,124.98
2023-04-12T03:30:07.424Z,125.77
2023-04-12T03:31:07.463Z,126.59
2023-04-12T03:32:07.470Z,125.67
2023-04-12T03:33:07.485Z,127.39
2023-04-12T03:34:07.485Z,125.51
2023-04-12T03:35:07.487Z,123.27
2023-04-12T03:36:07.542Z,124.60
2023-04-12T03:37:07.571Z,127.85
2023-04-12T03:38:07.517Z,124.01
2023-04-12T03:39:07.539Z,127.28
2023-04-12T03:40:07.544Z,124.84
2023-04-12T03:41:07.588Z,124.19
2023-04-12T03:42:11.590Z,124.16
2023-04-12T03:43:08.596Z,124.38
2023-04-12T03:44:07.608Z,124.63
2023-04-12T03:45:07.578Z,124.64
2023-04-12T03:46:07.594Z,124.59
2023-04-12T03:47:07.570Z,124.36
2023-04-12T03:48:07.651Z,126.71
2023-04-12T03:49:07.556Z,126.13
2023-04-12T03:50:10.935Z,124.57
2023-04-12T03:51:07.544Z,124.79
2023-04-12T03:52:07.532Z,125.06
2023-04-12T03:53:07.505Z,124.98
2023-04-12T03:54:07.516Z,125.03
2023-04-12T03:55:08.004Z,122.79
2023-04-12T03:56:07.485Z,124.56
2023-04-12T03:57:07.494Z,120.76
2023-04-12T03:58:07.522Z,122.77
2023-04-12T03:59:07.469Z,124.53
2023-04-12T04:00:07.474Z,123.64
2023-04-12T04:01:07.470Z,123.30
2023-04-12T04:02:07.584Z,121.56
2023-04-12T04:03:07.522Z,125.50
2023-04-12T04:04:07.611Z,121.92
2023-04-12T04:05:07.514Z,123.34
2023-04-12T04:06:07.423Z,120.98
2023-04-12T04:07:07.440Z,120.05
2023-04-12T04:08:07.400Z,122.41
2023-04-12T04:09:07.404Z,122.97
2023-04-12T04:10:07.408Z,122.00
2023-04-12T04:11:09.000Z,120.73
2023-04-12T04:12:07.393Z,120.44
2023-04-12T04:13:07.395Z,123.30
2023-04-12T04:14:07.376Z,122.95
2023-04-12T04:15:07.373Z,120.94
2023-04-12T04:16:07.412Z,121.26
2023-04-12T04:17:07.354Z,121.50
2023-04-12T04:18:07.367Z,123.23
2023-04-12T04:19:07.365Z,122.45
2023-04-12T04:20:07.348Z,124.66
2023-04-12T04:21:07.373Z,120.82
2023-04-12T04:22:07.319Z,122.43
2023-04-12T04:23:07.322Z,120.08
2023-04-12T04:24:07.328Z,120.36
2023-04-12T04:25:07.301Z,122.74
2023-04-12T04:26:07.268Z,122.84
2023-04-12T04:27:07.309Z,120.87
2023-04-12T04:28:07.291Z,119.58
2023-04-12T04:29:07.316Z,118.79
2023-04-12T04:30:07.275Z,122.32
2023-04-12T04:31:07.282Z,117.27
2023-04-12T04:32:07.315Z,120.59
2023-04-12T04:33:07.354Z,122.52
2023-04-12T04:34:07.283Z,117.97
2023-04-12T04:35:07.243Z,121.43
2023-04-12T04:36:07.217Z,121.92
2023-04-12T04:37:07.222Z,120.72
2023-04-12T04:38:07.221Z,119.73
2023-04-12T04:39:07.202Z,122.00
2023-04-12T04:40:07.230Z,119.84
2023-04-12T04:41:07.257Z,119.84
2023-04-12T04:42:07.251Z,119.69
2023-04-12T04:43:08.364Z,116.70
2023-04-12T04:44:07.289Z,121.59
2023-04-12T04:45:07.324Z,121.85
2023-04-12T04:46:07.397Z,119.53
2023-04-12T04:47:07.364Z,120.76
2023-04-12T04:48:07.393Z,121.01
2023-04-12T04:49:07.399Z,118.37
2023-04-12T04:50:07.420Z,121.69
2023-04-12T04:51:07.403Z,122.76
2023-04-12T04:52:07.454Z,122.51
2023-04-12T04:53:07.452Z,121.50
2023-04-12T04:54:07.473Z,123.11
2023-04-12T04:55:09.140Z,121.62
2023-04-12T04:56:07.475Z,124.65
2023-04-12T04:57:07.458Z,123.58
2023-04-12T04:58:07.488Z,123.38
2023-04-12T04:59:07.475Z,124.92
2023-04-12T05:00:07.463Z,125.80
2023-04-12T05:01:07.519Z,124.52
2023-04-12T05:02:07.522Z,121.95
2023-04-12T05:03:07.547Z,123.63
2023-04-12T05:04:07.615Z,123.75
2023-04-12T05:05:07.398Z,122.69
2023-04-12T05:06:07.415Z,126.36
2023-04-12T05:07:07.407Z,125.08
2023-04-12T05:08:07.388Z,122.11
2023-04-12T05:09:07.410Z,124.11
2023-04-12T05:10:07.397Z,125.38
2023-04-12T05:11:07.364Z,126.60
2023-04-12T05:12:07.442Z,127.17
2023-04-12T05:13:07.357Z,124.43
2023-04-12T05:14:07.369Z,125.78
2023-04-12T05:15:11.612Z,127.57
2023-04-12T05:16:07.339Z,127.86
2023-04-12T05:17:07.345Z,128.33
2023-04-12T05:18:07.383Z,128.84
2023-04-12T05:19:07.318Z,129.24
2023-04-12T05:20:07.290Z,129.63
2023-04-12T05:21:07.311Z,129.52
2023-04-12T05:22:07.305Z,129.38
2023-04-12T05:23:07.282Z,129.38
2023-04-12T05:24:07.265Z,132.10
2023-04-12T05:25:07.257Z,133.63
2023-04-12T05:26:07.253Z,129.82
2023-04-12T05:27:07.263Z,132.96
2023-04-12T05:28:07.268Z,131.60
2023-04-12T05:29:07.240Z,132.24
2023-04-12T05:30:07.230Z,133.73
2023-04-12T05:31:07.299Z,129.50
2023-04-12T05:32:07.213Z,131.80
2023-04-12T05:33:07.230Z,130.22
2023-04-12T05:34:07.209Z,133.53
2023-04-12T05:35:07.187Z,133.63
2023-04-12T05:36:07.248Z,132.41
2023-04-12T05:37:07.185Z,132.98
2023-04-12T05:38:07.179Z,135.87
2023-04-12T05:39:07.172Z,131.55
2023-04-12T05:40:07.168Z,136.34
2023-04-12T05:41:07.145Z,135.55
2023-04-12T05:42:07.365Z,133.40
2023-04-12T05:43:07.161Z,133.86
2023-04-12T05:44:07.156Z,133.14
2023-04-12T05:45:07.142Z,135.00
2023-04-12T05:46:07.137Z,136.98
2023-04-12T05:47:07.359Z,135.42
2023-04-12T05:48:07.206Z,138.17
2023-04-12T05:49:07.204Z,135.12
2023-04-12T05:50:07.224Z,136.78
2023-04-12T05:51:07.314Z,137.60
2023-04-12T05:52:07.267Z,141.17
2023-04-12T05:53:07.283Z,139.30
2023-04-12T05:54:07.328Z,137.60
2023-04-12T05:55:07.389Z,137.58
2023-04-12T05:56:07.372Z,142.24
2023-04-12T05:57:07.868Z,139.41
2023-04-12T05:58:07.402Z,140.14
2023-04-12T05:59:07.413Z,137.94
2023-04-12T06:00:07.474Z,137.65
2023-04-12T06:01:07.456Z,140.32
2023-04-12T06:02:07.531Z,144.20
2023-04-12T06:03:07.522Z,144.55
2023-04-12T06:04:07.634Z,143.70
2023-04-12T06:05:07.651Z,146.42
2023-04-12T06:06:07.559Z,147.41
2023-04-12T06:07:07.570Z,148.87
2023-04-12T06:08:07.579Z,146.23
2023-04-12T06:09:07.578Z,146.36
2023-04-12T06:10:07.616Z,148.24
2023-04-12T06:11:07.624Z,148.75
2023-04-12T06:12:07.630Z,151.50
2023-04-12T06:13:07.671Z,152.27
2023-04-12T06:14:08.351Z,152.65
2023-04-12T06:15:07.739Z,153.65
2023-04-12T06:16:07.825Z,156.28
2023-04-12T06:17:07.746Z,156.90
2023-04-12T06:18:07.866Z,157.51
2023-04-12T06:19:07.799Z,159.25
2023-04-12T06:20:07.853Z,158.55
2023-04-12T06:21:07.887Z,157.40
2023-04-12T06:22:08.366Z,162.20
2023-04-12T06:23:07.872Z,160.15
2023-04-12T06:24:07.919Z,160.93
2023-04-12T06:25:07.969Z,161.59
2023-04-12T06:26:07.982Z,162.44
2023-04-12T06:27:08.043Z,168.22
2023-04-12T06:28:08.011Z,165.75
2023-04-12T06:29:08.046Z,168.71
2023-04-12T06:30:08.050Z,167.97
2023-04-12T06:31:08.140Z,171.73
2023-04-12T06:32:08.138Z,174.77
2023-04-12T06:33:08.158Z,175.29
2023-04-12T06:34:08.165Z,174.83
2023-04-12T06:35:08.205Z,177.12
2023-04-12T06:36:08.261Z,177.05
2023-04-12T06:37:08.371Z,178.55
2023-04-12T06:38:08.213Z,176.39
2023-04-12T06:39:08.242Z,181.57
2023-04-12T06:40:08.261Z,182.76
2023-04-12T06:41:08.290Z,182.71
2023-04-12T06:42:08.314Z,183.86
2023-04-12T06:43:08.369Z,183.14
2023-04-12T06:44:08.348Z,187.12
2023-04-12T06:45:08.350Z,188.73
2023-04-12T06:46:08.371Z,188.89
2023-04-12T06:47:09.083Z,190.72
2023-04-12T06:48:08.477Z,192.72
2023-04-12T06:49:08.420Z,187.95
2023-04-12T06:50:08.411Z,188.71
2023-04-12T06:51:08.471Z,185.86
2023-04-12T06:52:08.868Z,172.00
2023-04-12T06:53:08.473Z,177.68
2023-04-12T06:54:08.539Z,183.38
2023-04-12T06:55:08.515Z,183.17
2023-04-12T06:56:08.533Z,184.69
2023-04-12T06:57:08.548Z,183.21
2023-04-12T06:58:09.394Z,180.39
2023-04-12T06:59:08.512Z,181.42
2023-04-12T07:00:08.532Z,190.95
2023-04-12T07:01:08.607Z,191.56
2023-04-12T07:02:08.675Z,194.60
2023-04-12T07:03:08.687Z,195.93
2023-04-12T07:04:08.684Z,202.90
2023-04-12T07:05:08.654Z,200.54
2023-04-12T07:06:23.725Z,204.98
2023-04-12T07:07:09.698Z,205.03
2023-04-12T07:08:08.689Z,204.23
2023-04-12T07:09:08.700Z,205.64
2023-04-12T07:10:08.714Z,205.14
2023-04-12T07:11:20.057Z,206.42
2023-04-12T07:12:09.671Z,205.14
2023-04-12T07:13:08.660Z,206.02
2023-04-12T07:14:08.699Z,208.16
2023-04-12T07:15:08.730Z,209.25
2023-04-12T07:16:08.673Z,206.32
2023-04-12T07:17:08.652Z,203.31
2023-04-12T07:18:08.677Z,209.75
2023-04-12T07:19:08.624Z,214.26
2023-04-12T07:20:08.616Z,215.86
2023-04-12T07:21:08.631Z,211.39
2023-04-12T07:22:08.653Z,215.86
2023-04-12T07:23:08.680Z,219.16
2023-04-12T07:24:08.725Z,240.67
2023-04-12T07:25:08.823Z,238.34
2023-04-12T07:26:08.933Z,234.97
2023-04-12T07:27:08.853Z,237.41
2023-04-12T07:28:09.193Z,237.57
2023-04-12T07:29:08.964Z,239.94
2023-04-12T07:30:08.998Z,245.93
2023-04-12T07:31:09.237Z,239.08
2023-04-12T07:32:09.034Z,238.78
2023-04-12T07:33:18.975Z,246.45
2023-04-12T07:34:10.183Z,246.55
2023-04-12T07:35:09.065Z,247.08
2023-04-12T07:36:09.244Z,246.43
2023-04-12T07:37:09.085Z,251.68
2023-04-12T07:38:09.038Z,254.85
2023-04-12T07:39:09.025Z,249.60
2023-04-12T07:40:09.069Z,248.79
2023-04-12T07:41:09.044Z,247.33
2023-04-12T07:42:09.420Z,250.00
2023-04-12T07:43:09.009Z,241.35
2023-04-12T07:44:09.004Z,249.76
2023-04-12T07:45:08.992Z,250.69
2023-04-12T07:46:09.186Z,245.64
2023-04-12T07:47:09.419Z,245.99
2023-04-12T07:48:09.015Z,250.00
2023-04-12T07:49:08.960Z,248.12
2023-04-12T07:50:09.856Z,243.93
2023-04-12T07:51:09.019Z,251.16
2023-04-12T07:52:09.008Z,249.33
2023-04-12T07:53:09.018Z,249.03
2023-04-12T07:54:09.019Z,246.27
2023-04-12T07:55:09.029Z,249.40
2023-04-12T07:56:09.026Z,250.86
2023-04-12T07:57:09.096Z,244.93
2023-04-12T07:58:08.998Z,248.89
2023-04-12T07:59:09.013Z,248.10
2023-04-12T08:00:09.057Z,247.10
2023-04-12T08:01:09.001Z,249.01
2023-04-12T08:02:09.072Z,246.54
2023-04-12T08:03:09.209Z,249.45
2023-04-12T08:04:09.094Z,252.29
2023-04-12T08:05:09.020Z,249.53
2023-04-12T08:06:09.258Z,249.16
2023-04-12T08:07:09.040Z,250.00
2023-04-12T08:08:09.108Z,248.75
2023-04-12T08:09:09.132Z,249.80
2023-04-12T08:10:09.146Z,250.00
2023-04-12T08:11:09.171Z,249.09
2023-04-12T08:12:09.186Z,250.00
2023-04-12T08:13:09.279Z,249.13
2023-04-12T08:14:09.432Z,247.86
2023-04-12T08:15:09.362Z,250.00
2023-04-12T08:16:09.422Z,247.11
2023-04-12T08:17:09.362Z,248.55
2023-04-12T08:18:09.400Z,247.13
2023-04-12T08:19:09.423Z,248.72
2023-04-12T08:20:09.482Z,249.10
2023-04-12T08:21:09.486Z,248.63
2023-04-12T08:22:10.832Z,249.83
2023-04-12T08:23:09.541Z,247.23
2023-04-12T08:24:09.540Z,247.38
2023-04-12T08:25:09.516Z,247.61
2023-04-12T08:26:09.492Z,250.00
2023-04-12T08:27:09.511Z,248.97
2023-04-12T08:28:09.550Z,248.61
2023-04-12T08:29:09.487Z,248.52
2023-04-12T08:30:09.475Z,249.57
2023-04-12T08:31:09.509Z,248.45
2023-04-12T08:32:09.472Z,248.46
2023-04-12T08:33:09.471Z,247.98
2023-04-12T08:34:09.452Z,248.94
2023-04-12T08:35:09.462Z,249.76
2023-04-12T08:36:09.469Z,249.57
2023-04-12T08:37:09.461Z,249.46
2023-04-12T08:38:09.950Z,248.79
2023-04-12T08:39:09.502Z,247.52
2023-04-12T08:40:09.488Z,246.34
2023-04-12T08:41:09.422Z,248.61
2023-04-12T08:42:09.409Z,248.89
2023-04-12T08:43:09.959Z,247.51
2023-04-12T08:44:09.362Z,238.07
2023-04-12T08:45:09.401Z,245.06
2023-04-12T08:46:09.415Z,226.00
2023-04-12T08:47:09.343Z,217.15
2023-04-12T08:48:09.374Z,216.18
2023-04-12T08:49:09.368Z,216.25
2023-04-12T08:50:09.402Z,211.83
2023-04-12T08:51:09.393Z,198.36
2023-04-12T08:52:09.319Z,202.63
2023-04-12T08:53:09.323Z,218.24
2023-04-12T08:54:09.356Z,220.14
2023-04-12T08:55:09.376Z,216.72
2023-04-12T08:56:09.322Z,214.63
2023-04-12T08:57:09.328Z,211.96
2023-04-12T08:58:09.489Z,211.71
2023-04-12T08:59:09.450Z,208.88
2023-04-12T09:00:09.320Z,204.08
2023-04-12T09:01:09.294Z,190.98
2023-04-12T09:02:09.459Z,199.04
2023-04-12T09:03:09.486Z,201.81
2023-04-12T09:04:09.499Z,194.38
2023-04-12T09:05:09.336Z,178.53
2023-04-12T09:06:09.246Z,185.17
2023-04-12T09:07:09.268Z,189.49
2023-04-12T09:08:09.221Z,180.14
2023-04-12T09:09:09.225Z,182.66
2023-04-12T09:10:09.220Z,151.71
2023-04-12T09:11:09.210Z,165.26
2023-04-12T09:12:09.216Z,167.75
2023-04-12T09:13:09.231Z,156.21
2023-04-12T09:14:09.198Z,163.84
2023-04-12T09:15:09.173Z,164.60
2023-04-12T09:16:09.206Z,157.42
2023-04-12T09:17:09.231Z,152.44
2023-04-12T09:18:09.391Z,156.49
2023-04-12T09:19:09.190Z,149.88
2023-04-12T09:20:09.168Z,134.58
2023-04-12T09:21:09.157Z,138.76
2023-04-12T09:22:09.141Z,135.93
2023-04-12T09:23:09.154Z,140.24
2023-04-12T09:24:10.336Z,138.15
2023-04-12T09:25:09.124Z,148.05
2023-04-12T09:26:09.109Z,147.81
2023-04-12T09:27:09.100Z,146.41
2023-04-12T09:28:09.108Z,147.30
2023-04-12T09:29:09.089Z,146.73
2023-04-12T09:30:09.070Z,149.95
2023-04-12T09:31:09.104Z,152.66
2023-04-12T09:32:09.100Z,156.82
2023-04-12T09:33:09.060Z,160.57
2023-04-12T09:34:09.052Z,161.60
2023-04-12T09:35:09.092Z,164.17
2023-04-12T09:36:09.094Z,164.35
2023-04-12T09:37:09.059Z,170.04
2023-04-12T09:38:09.457Z,168.98
2023-04-12T09:39:09.016Z,173.33
2023-04-12T09:40:09.003Z,172.59
2023-04-12T09:41:09.037Z,173.76
2023-04-12T09:42:24.990Z,173.23
2023-04-12T09:43:10.444Z,173.41
2023-04-12T09:44:09.003Z,173.56
2023-04-12T09:45:08.978Z,174.43
2023-04-12T09:46:09.065Z,176.18
2023-04-12T09:47:08.960Z,174.36
2023-04-12T09:48:09.543Z,177.70
2023-04-12T09:49:08.964Z,178.41
2023-04-12T09:50:09.100Z,180.93
2023-04-12T09:51:08.991Z,182.43
2023-04-12T09:52:08.923Z,183.89
2023-04-12T09:53:08.956Z,186.61
2023-04-12T09:54:09.036Z,189.65
2023-04-12T09:55:09.016Z,189.47
2023-04-12T09:56:09.107Z,192.42
2023-04-12T09:57:09.096Z,195.58
2023-04-12T09:58:09.138Z,198.44
2023-04-12T09:59:09.160Z,202.61
2023-04-12T10:00:09.164Z,211.63
2023-04-12T10:01:09.219Z,211.22
2023-04-12T10:02:09.281Z,211.77
2023-04-12T10:03:09.476Z,212.53
2023-04-12T10:04:09.659Z,213.94
2023-04-12T10:05:09.371Z,215.94
2023-04-12T10:06:09.307Z,217.66
2023-04-12T10:07:09.327Z,221.28
2023-04-12T10:08:09.341Z,222.66
2023-04-12T10:09:09.391Z,220.93
2023-04-12T10:10:09.385Z,222.97
2023-04-12T10:11:09.429Z,224.06
2023-04-12T10:12:09.394Z,224.34
2023-04-12T10:13:09.445Z,225.76
2023-04-12T10:14:09.452Z,227.15
2023-04-12T10:15:09.443Z,229.54
2023-04-12T10:16:09.494Z,231.95
2023-04-12T10:17:09.541Z,233.05
2023-04-12T10:18:10.022Z,233.43
2023-04-12T10:19:09.471Z,235.00
2023-04-12T10:20:09.504Z,235.64
2023-04-12T10:21:09.506Z,236.03
2023-04-12T10:22:09.528Z,236.37
2023-04-12T10:23:09.498Z,237.68
2023-04-12T10:24:09.524Z,237.08
2023-04-12T10:25:09.540Z,237.53
2023-04-12T10:26:09.539Z,238.73
2023-04-12T10:27:09.521Z,240.07
2023-04-12T10:28:09.547Z,239.57
2023-04-12T10:29:09.567Z,241.39
2023-04-12T10:30:09.517Z,241.66
2023-04-12T10:31:09.578Z,242.18
2023-04-12T10:32:09.573Z,242.82
2023-04-12T10:33:10.054Z,245.29
2023-04-12T10:34:09.531Z,245.46
2023-04-12T10:35:09.532Z,247.71
2023-04-12T10:36:09.535Z,248.15
2023-04-12T10:37:09.562Z,247.73
2023-04-12T10:38:09.995Z,245.87
2023-04-12T10:39:09.562Z,233.97
2023-04-12T10:40:09.581Z,200.03
2023-04-12T10:41:09.638Z,205.27
2023-04-12T10:42:09.675Z,205.22
2023-04-12T10:43:09.781Z,220.84
2023-04-12T10:44:09.808Z,223.33
2023-04-12T10:45:09.836Z,222.49
2023-04-12T10:46:09.927Z,219.74
2023-04-12T10:47:09.980Z,222.26
2023-04-12T10:48:10.057Z,226.34
2023-04-12T10:49:10.059Z,239.47
2023-04-12T10:50:10.063Z,246.20
2023-04-12T10:51:10.130Z,250.00
2023-04-12T10:52:10.116Z,249.94
2023-04-12T10:53:11.986Z,248.95
2023-04-12T10:54:10.278Z,247.05
2023-04-12T10:55:10.240Z,245.39
2023-04-12T10:56:10.268Z,244.33
2023-04-12T10:57:10.322Z,243.11
2023-04-12T10:58:10.321Z,243.09
2023-04-12T10:59:10.912Z,240.36
2023-04-12T11:00:10.391Z,239.59
2023-04-12T11:01:10.523Z,238.83
2023-04-12T11:02:10.696Z,236.54
2023-04-12T11:03:10.672Z,235.93
2023-04-12T11:04:10.917Z,231.85
2023-04-12T11:05:11.081Z,231.33
2023-04-12T11:06:26.404Z,229.55
2023-04-12T11:07:11.738Z,229.62
2023-04-12T11:08:10.504Z,229.83
2023-04-12T11:09:10.500Z,229.63
2023-04-12T11:10:10.515Z,228.02
2023-04-12T11:11:10.545Z,223.88
2023-04-12T11:12:11.182Z,221.97
2023-04-12T11:13:10.490Z,220.26
2023-04-12T11:14:10.516Z,220.58
2023-04-12T11:15:10.450Z,219.75
2023-04-12T11:16:10.516Z,217.90
2023-04-12T11:17:10.515Z,218.88
2023-04-12T11:18:10.617Z,218.80
2023-04-12T11:19:10.479Z,215.35
2023-04-12T11:20:10.445Z,215.64
2023-04-12T11:21:10.515Z,214.45
2023-04-12T11:22:10.464Z,213.51
2023-04-12T11:23:11.386Z,212.94
2023-04-12T11:24:10.450Z,212.51
2023-04-12T11:25:10.426Z,210.30
2023-04-12T11:26:10.444Z,210.46
2023-04-12T11:27:10.380Z,208.17
2023-04-12T11:28:25.232Z,204.23
2023-04-12T11:29:11.489Z,204.40
2023-04-12T11:30:10.395Z,204.97
2023-04-12T11:31:10.472Z,204.86
2023-04-12T11:32:10.422Z,206.01
2023-04-12T11:33:10.423Z,204.53
2023-04-12T11:34:10.328Z,202.43
2023-04-12T11:35:10.329Z,199.95
2023-04-12T11:36:10.316Z,200.88
2023-04-12T11:37:10.342Z,195.63
2023-04-12T11:38:10.382Z,195.21
2023-04-12T11:39:10.401Z,191.95
2023-04-12T11:40:10.352Z,194.02
2023-04-12T11:41:10.318Z,191.44
2023-04-12T11:42:10.314Z,188.58
2023-04-12T11:43:10.286Z,187.81
2023-04-12T11:44:10.357Z,187.30
2023-04-12T11:45:17.066Z,181.20
2023-04-12T11:46:11.453Z,181.28
2023-04-12T11:47:10.451Z,181.46
2023-04-12T11:48:10.479Z,152.83
2023-04-12T11:49:10.413Z,158.69
2023-04-12T11:50:10.387Z,144.38
2023-04-12T11:51:11.764Z,155.51
2023-04-12T11:52:10.428Z,155.03
2023-04-12T11:53:10.379Z,124.11
2023-04-12T11:54:10.384Z,128.12
2023-04-12T11:55:10.370Z,127.15
2023-04-12T11:56:10.354Z,110.85
2023-04-12T11:57:10.367Z,111.80
2023-04-12T11:58:10.356Z,112.16
2023-04-12T11:59:10.368Z,107.75
2023-04-12T12:00:10.330Z,107.43
2023-04-12T12:01:10.363Z,111.35
2023-04-12T12:02:21.931Z,108.31
2023-04-12T12:03:11.563Z,108.43
2023-04-12T12:04:10.621Z,105.19
2023-04-12T12:05:10.462Z,103.80
2023-04-12T12:06:10.923Z,98.78
2023-04-12T12:07:10.608Z,100.69
2023-04-12T12:08:10.308Z,91.10
2023-04-12T12:09:10.326Z,79.52
2023-04-12T12:10:10.433Z,75.85
2023-04-12T12:11:10.339Z,76.74
2023-04-12T12:12:10.308Z,82.04
2023-04-12T12:13:10.271Z,81.86
2023-04-12T12:14:10.307Z,80.55
2023-04-12T12:15:10.269Z,78.34
2023-04-12T12:16:10.314Z,87.81
2023-04-12T12:17:10.334Z,85.37
2023-04-12T12:18:10.283Z,80.50
2023-04-12T12:19:10.245Z,72.66
2023-04-12T12:20:10.254Z,65.22
2023-04-12T12:21:10.262Z,66.86
2023-04-12T12:22:10.253Z,61.56
2023-04-12T12:23:10.207Z,62.35
2023-04-12T12:24:10.275Z,61.18
2023-04-12T12:25:10.226Z,71.08
2023-04-12T12:26:17.758Z,71.55
2023-04-12T12:27:11.221Z,71.55
2023-04-12T12:28:10.234Z,70.87
2023-04-12T12:29:10.211Z,71.10